sensor_id;sensor_type;location;lat;lon;timestamp;temperature;humidity
5286;DHT22;2665;53.112;7.358;2022-07-03T00:01:38;18.20;87.20
5286;DHT22;2665;53.112;7.358;2022-07-03T00:04:04;18.10;86.90
5286;DHT22;2665;53.112;7.358;2022-07-03T00:06:31;18.20;86.70
5286;DHT22;2665;53.112;7.358;2022-07-03T00:08:58;18.20;86.20
5286;DHT22;2665;53.112;7.358;2022-07-03T00:11:24;18.10;87.60
5286;DHT22;2665;53.112;7.358;2022-07-03T00:13:50;18.10;86.30
5286;DHT22;2665;53.112;7.358;2022-07-03T00:16:15;18.10;86.90
5286;DHT22;2665;53.112;7.358;2022-07-03T00:18:42;18.10;87.40
5286;DHT22;2665;53.112;7.358;2022-07-03T00:21:09;18.10;88.20
5286;DHT22;2665;53.112;7.358;2022-07-03T00:23:49;18.10;88.20
5286;DHT22;2665;53.112;7.358;2022-07-03T00:26:19;18.10;89.20
5286;DHT22;2665;53.112;7.358;2022-07-03T00:28:45;18.10;89.40
5286;DHT22;2665;53.112;7.358;2022-07-03T00:31:11;18.10;90.50
5286;DHT22;2665;53.112;7.358;2022-07-03T00:33:38;18.10;90.50
5286;DHT22;2665;53.112;7.358;2022-07-03T00:36:04;18.10;99.20
5286;DHT22;2665;53.112;7.358;2022-07-03T00:38:30;18.10;90.10
5286;DHT22;2665;53.112;7.358;2022-07-03T00:40:55;18.10;89.30
5286;DHT22;2665;53.112;7.358;2022-07-03T00:43:22;18.10;89.20
5286;DHT22;2665;53.112;7.358;2022-07-03T00:45:50;18.00;89.10
5286;DHT22;2665;53.112;7.358;2022-07-03T00:48:17;18.00;90.00
5286;DHT22;2665;53.112;7.358;2022-07-03T00:50:49;18.00;88.70
5286;DHT22;2665;53.112;7.358;2022-07-03T00:53:35;17.90;89.20
5286;DHT22;2665;53.112;7.358;2022-07-03T00:56:03;17.90;90.10
5286;DHT22;2665;53.112;7.358;2022-07-03T00:58:30;17.90;89.90
5286;DHT22;2665;53.112;7.358;2022-07-03T01:00:59;17.90;90.30
5286;DHT22;2665;53.112;7.358;2022-07-03T01:03:26;17.90;90.40
5286;DHT22;2665;53.112;7.358;2022-07-03T01:05:54;17.90;91.00
5286;DHT22;2665;53.112;7.358;2022-07-03T01:11:27;17.90;91.00
5286;DHT22;2665;53.112;7.358;2022-07-03T01:16:55;17.90;90.90
5286;DHT22;2665;53.112;7.358;2022-07-03T01:19:36;18.00;90.70
5286;DHT22;2665;53.112;7.358;2022-07-03T01:22:28;18.00;91.30
5286;DHT22;2665;53.112;7.358;2022-07-03T01:25:14;18.00;91.40
5286;DHT22;2665;53.112;7.358;2022-07-03T01:30:18;18.00;91.40
5286;DHT22;2665;53.112;7.358;2022-07-03T01:32:46;18.00;91.20
5286;DHT22;2665;53.112;7.358;2022-07-03T01:35:25;18.00;91.70
5286;DHT22;2665;53.112;7.358;2022-07-03T01:37:54;18.00;91.50
5286;DHT22;2665;53.112;7.358;2022-07-03T01:40:20;17.90;91.90
5286;DHT22;2665;53.112;7.358;2022-07-03T01:42:48;17.90;92.20
5286;DHT22;2665;53.112;7.358;2022-07-03T01:45:15;17.90;92.10
5286;DHT22;2665;53.112;7.358;2022-07-03T01:47:45;17.90;92.20
5286;DHT22;2665;53.112;7.358;2022-07-03T01:50:13;17.90;92.40
5286;DHT22;2665;53.112;7.358;2022-07-03T01:52:41;17.90;91.50
5286;DHT22;2665;53.112;7.358;2022-07-03T01:55:09;18.00;91.80
5286;DHT22;2665;53.112;7.358;2022-07-03T01:57:42;17.90;91.00
5286;DHT22;2665;53.112;7.358;2022-07-03T02:00:10;17.80;91.80
5286;DHT22;2665;53.112;7.358;2022-07-03T02:02:42;17.80;91.80
5286;DHT22;2665;53.112;7.358;2022-07-03T07:00:56;19.20;99.90
5286;DHT22;2665;53.112;7.358;2022-07-03T07:03:22;19.10;99.90
5286;DHT22;2665;53.112;7.358;2022-07-03T07:05:47;19.20;99.90
5286;DHT22;2665;53.112;7.358;2022-07-03T07:08:13;19.40;99.90
5286;DHT22;2665;53.112;7.358;2022-07-03T07:10:39;19.50;99.90
5286;DHT22;2665;53.112;7.358;2022-07-03T07:13:04;19.60;98.90
5286;DHT22;2665;53.112;7.358;2022-07-03T07:15:30;19.60;95.90
5286;DHT22;2665;53.112;7.358;2022-07-03T07:17:55;19.70;94.40
5286;DHT22;2665;53.112;7.358;2022-07-03T07:20:21;19.80;84.60
5286;DHT22;2665;53.112;7.358;2022-07-03T07:22:46;19.90;82.80
5286;DHT22;2665;53.112;7.358;2022-07-03T07:25:12;20.10;73.40
5286;DHT22;2665;53.112;7.358;2022-07-03T07:27:38;20.10;63.80
5286;DHT22;2665;53.112;7.358;2022-07-03T07:30:04;20.20;62.60
5286;DHT22;2665;53.112;7.358;2022-07-03T07:32:29;20.40;53.40
5286;DHT22;2665;53.112;7.358;2022-07-03T07:34:55;20.50;47.40
5286;DHT22;2665;53.112;7.358;2022-07-03T07:37:20;20.60;38.20
5286;DHT22;2665;53.112;7.358;2022-07-03T07:39:46;20.70;31.30
5286;DHT22;2665;53.112;7.358;2022-07-03T07:42:12;20.80;29.30
5286;DHT22;2665;53.112;7.358;2022-07-03T07:44:38;20.90;28.40
5286;DHT22;2665;53.112;7.358;2022-07-03T07:47:04;21.00;25.30
5286;DHT22;2665;53.112;7.358;2022-07-03T07:49:29;21.20;21.90
5286;DHT22;2665;53.112;7.358;2022-07-03T07:51:55;21.30;18.40
5286;DHT22;2665;53.112;7.358;2022-07-03T07:54:21;21.40;16.50
5286;DHT22;2665;53.112;7.358;2022-07-03T07:56:46;21.40;11.40
5286;DHT22;2665;53.112;7.358;2022-07-03T07:59:12;21.40;10.70
5286;DHT22;2665;53.112;7.358;2022-07-03T08:01:37;21.50;10.30
5286;DHT22;2665;53.112;7.358;2022-07-03T08:04:22;21.50;8.70
5286;DHT22;2665;53.112;7.358;2022-07-03T08:07:06;21.50;7.50
5286;DHT22;2665;53.112;7.358;2022-07-03T08:09:31;21.60;5.50
5286;DHT22;2665;53.112;7.358;2022-07-03T08:11:57;21.70;5.30
5286;DHT22;2665;53.112;7.358;2022-07-03T08:14:23;21.80;3.40
5286;DHT22;2665;53.112;7.358;2022-07-03T08:16:48;21.90;1.60
5286;DHT22;2665;53.112;7.358;2022-07-03T08:19:15;22.00;1.00
5286;DHT22;2665;53.112;7.358;2022-07-03T08:21:41;22.20;1.00
5286;DHT22;2665;53.112;7.358;2022-07-03T08:24:07;22.20;1.00
5286;DHT22;2665;53.112;7.358;2022-07-03T08:26:32;22.20;1.00
5286;DHT22;2665;53.112;7.358;2022-07-03T08:28:58;22.10;1.00
5286;DHT22;2665;53.112;7.358;2022-07-03T08:31:23;22.00;1.00
5286;DHT22;2665;53.112;7.358;2022-07-03T08:33:49;21.90;1.00
5286;DHT22;2665;53.112;7.358;2022-07-03T08:36:14;21.80;1.00
5286;DHT22;2665;53.112;7.358;2022-07-03T08:38:40;21.70;1.00
5286;DHT22;2665;53.112;7.358;2022-07-03T08:41:06;21.70;1.00
5286;DHT22;2665;53.112;7.358;2022-07-03T08:43:33;21.80;1.00
5286;DHT22;2665;53.112;7.358;2022-07-03T08:46:00;21.90;1.00
5286;DHT22;2665;53.112;7.358;2022-07-03T08:48:27;21.90;1.00
5286;DHT22;2665;53.112;7.358;2022-07-03T08:50:56;21.90;1.00
5286;DHT22;2665;53.112;7.358;2022-07-03T08:53:23;22.10;1.00
5286;DHT22;2665;53.112;7.358;2022-07-03T08:55:49;22.10;1.00
5286;DHT22;2665;53.112;7.358;2022-07-03T08:58:15;22.10;1.00
5286;DHT22;2665;53.112;7.358;2022-07-03T09:00:41;22.30;1.00
5286;DHT22;2665;53.112;7.358;2022-07-03T09:03:11;22.40;1.00
5286;DHT22;2665;53.112;7.358;2022-07-03T09:05:38;22.60;1.00
5286;DHT22;2665;53.112;7.358;2022-07-03T09:08:06;22.60;1.00
5286;DHT22;2665;53.112;7.358;2022-07-03T09:10:33;22.70;1.00
5286;DHT22;2665;53.112;7.358;2022-07-03T09:12:59;23.00;1.00
5286;DHT22;2665;53.112;7.358;2022-07-03T09:15:24;23.10;1.00
5286;DHT22;2665;53.112;7.358;2022-07-03T09:18:04;23.10;1.00
5286;DHT22;2665;53.112;7.358;2022-07-03T09:20:35;23.10;1.00
5286;DHT22;2665;53.112;7.358;2022-07-03T09:23:20;23.00;1.00
5286;DHT22;2665;53.112;7.358;2022-07-03T09:25:52;23.00;1.00
5286;DHT22;2665;53.112;7.358;2022-07-03T09:28:20;23.00;1.00
5286;DHT22;2665;53.112;7.358;2022-07-03T09:31:02;23.00;1.00
5286;DHT22;2665;53.112;7.358;2022-07-03T09:33:28;23.10;1.00
5286;DHT22;2665;53.112;7.358;2022-07-03T09:35:54;23.30;1.00
5286;DHT22;2665;53.112;7.358;2022-07-03T09:38:21;23.20;1.00
5286;DHT22;2665;53.112;7.358;2022-07-03T09:40:54;23.20;1.00
5286;DHT22;2665;53.112;7.358;2022-07-03T09:46:00;23.20;1.00
5286;DHT22;2665;53.112;7.358;2022-07-03T09:48:36;23.30;1.00
5286;DHT22;2665;53.112;7.358;2022-07-03T09:51:23;23.30;1.00
5286;DHT22;2665;53.112;7.358;2022-07-03T09:56:19;23.20;1.00
5286;DHT22;2665;53.112;7.358;2022-07-03T09:59:05;23.10;1.00
5286;DHT22;2665;53.112;7.358;2022-07-03T10:01:31;23.20;1.00
5286;DHT22;2665;53.112;7.358;2022-07-03T10:04:17;23.20;1.00
5286;DHT22;2665;53.112;7.358;2022-07-03T10:06:57;23.20;1.00
5286;DHT22;2665;53.112;7.358;2022-07-03T10:09:28;23.10;1.00
5286;DHT22;2665;53.112;7.358;2022-07-03T10:11:55;23.10;1.00
5286;DHT22;2665;53.112;7.358;2022-07-03T10:14:23;23.20;1.00
5286;DHT22;2665;53.112;7.358;2022-07-03T10:16:49;23.30;1.00
5286;DHT22;2665;53.112;7.358;2022-07-03T10:19:38;23.30;1.00
5286;DHT22;2665;53.112;7.358;2022-07-03T10:22:02;23.40;1.00
5286;DHT22;2665;53.112;7.358;2022-07-03T10:24:31;23.40;1.00
5286;DHT22;2665;53.112;7.358;2022-07-03T10:26:58;23.60;1.00
5286;DHT22;2665;53.112;7.358;2022-07-03T10:29:26;23.50;1.00
5286;DHT22;2665;53.112;7.358;2022-07-03T10:31:51;23.60;1.00
5286;DHT22;2665;53.112;7.358;2022-07-03T10:34:19;23.60;1.00
5286;DHT22;2665;53.112;7.358;2022-07-03T10:36:49;23.60;1.00
5286;DHT22;2665;53.112;7.358;2022-07-03T10:42:05;24.00;1.00
5286;DHT22;2665;53.112;7.358;2022-07-03T10:45:02;24.20;1.00
5286;DHT22;2665;53.112;7.358;2022-07-03T10:47:43;24.30;1.00
5286;DHT22;2665;53.112;7.358;2022-07-03T10:50:17;24.20;1.00
5286;DHT22;2665;53.112;7.358;2022-07-03T10:52:43;24.00;1.00
5286;DHT22;2665;53.112;7.358;2022-07-03T10:55:11;23.70;1.00
5286;DHT22;2665;53.112;7.358;2022-07-03T10:57:38;23.50;1.00
5286;DHT22;2665;53.112;7.358;2022-07-03T11:02:41;23.00;1.00
5286;DHT22;2665;53.112;7.358;2022-07-03T11:20:34;23.50;1.00
5286;DHT22;2665;53.112;7.358;2022-07-03T11:25:43;23.90;1.00
5286;DHT22;2665;53.112;7.358;2022-07-03T11:33:45;24.90;1.00
5286;DHT22;2665;53.112;7.358;2022-07-03T11:36:29;25.50;1.00
5286;DHT22;2665;53.112;7.358;2022-07-03T11:41:23;27.00;1.00
5286;DHT22;2665;53.112;7.358;2022-07-03T11:43:54;27.10;1.00
5286;DHT22;2665;53.112;7.358;2022-07-03T11:46:22;27.10;1.00
5286;DHT22;2665;53.112;7.358;2022-07-03T11:48:47;27.40;1.00
5286;DHT22;2665;53.112;7.358;2022-07-03T13:21:26;29.50;1.00
5286;DHT22;2665;53.112;7.358;2022-07-03T13:23:52;29.50;1.00
5286;DHT22;2665;53.112;7.358;2022-07-03T13:26:18;28.90;1.00
5286;DHT22;2665;53.112;7.358;2022-07-03T13:28:44;28.90;1.00
5286;DHT22;2665;53.112;7.358;2022-07-03T13:31:10;29.10;1.00
5286;DHT22;2665;53.112;7.358;2022-07-03T13:33:35;28.90;1.00
5286;DHT22;2665;53.112;7.358;2022-07-03T13:36:01;28.50;1.00
5286;DHT22;2665;53.112;7.358;2022-07-03T13:38:26;28.50;1.00
5286;DHT22;2665;53.112;7.358;2022-07-03T13:40:52;28.80;1.00
5286;DHT22;2665;53.112;7.358;2022-07-03T13:43:18;29.20;1.00
5286;DHT22;2665;53.112;7.358;2022-07-03T13:45:43;29.30;1.00
5286;DHT22;2665;53.112;7.358;2022-07-03T13:48:09;29.40;1.00
5286;DHT22;2665;53.112;7.358;2022-07-03T13:50:34;29.50;1.00
5286;DHT22;2665;53.112;7.358;2022-07-03T13:53:00;29.50;1.00
5286;DHT22;2665;53.112;7.358;2022-07-03T13:55:26;29.60;1.00
5286;DHT22;2665;53.112;7.358;2022-07-03T13:57:51;29.50;1.00
5286;DHT22;2665;53.112;7.358;2022-07-03T14:00:18;28.40;1.00
5286;DHT22;2665;53.112;7.358;2022-07-03T14:02:43;28.40;1.00
5286;DHT22;2665;53.112;7.358;2022-07-03T14:05:09;28.50;1.00
5286;DHT22;2665;53.112;7.358;2022-07-03T14:07:34;27.90;1.00
5286;DHT22;2665;53.112;7.358;2022-07-03T14:10:00;27.10;1.00
5286;DHT22;2665;53.112;7.358;2022-07-03T14:12:26;26.70;1.00
5286;DHT22;2665;53.112;7.358;2022-07-03T14:14:51;27.00;1.00
5286;DHT22;2665;53.112;7.358;2022-07-03T14:17:17;27.20;1.00
5286;DHT22;2665;53.112;7.358;2022-07-03T14:19:43;27.10;1.00
5286;DHT22;2665;53.112;7.358;2022-07-03T14:22:08;26.60;1.00
5286;DHT22;2665;53.112;7.358;2022-07-03T14:24:34;26.00;1.00
5286;DHT22;2665;53.112;7.358;2022-07-03T14:26:59;25.50;1.00
5286;DHT22;2665;53.112;7.358;2022-07-03T14:29:44;25.30;1.00
5286;DHT22;2665;53.112;7.358;2022-07-03T14:32:28;25.20;1.00
5286;DHT22;2665;53.112;7.358;2022-07-03T14:35:00;26.40;1.00
5286;DHT22;2665;53.112;7.358;2022-07-03T14:37:27;26.30;1.00
5286;DHT22;2665;53.112;7.358;2022-07-03T14:39:53;26.00;1.00
5286;DHT22;2665;53.112;7.358;2022-07-03T14:42:19;25.60;1.00
5286;DHT22;2665;53.112;7.358;2022-07-03T14:54:31;23.10;1.00
5286;DHT22;2665;53.112;7.358;2022-07-03T14:56:58;22.90;1.00
5286;DHT22;2665;53.112;7.358;2022-07-03T14:59:47;22.50;1.00
5286;DHT22;2665;53.112;7.358;2022-07-03T15:07:22;16.40;14.60
5286;DHT22;2665;53.112;7.358;2022-07-03T15:10:10;15.70;1.00
5286;DHT22;2665;53.112;7.358;2022-07-03T15:12:47;15.60;99.90
5286;DHT22;2665;53.112;7.358;2022-07-03T15:15:15;15.60;99.90
5286;DHT22;2665;53.112;7.358;2022-07-03T15:17:42;15.60;99.90
5286;DHT22;2665;53.112;7.358;2022-07-03T15:20:09;15.80;1.00
5286;DHT22;2665;53.112;7.358;2022-07-03T15:22:41;16.00;1.00
5286;DHT22;2665;53.112;7.358;2022-07-03T15:25:09;16.10;99.90
5286;DHT22;2665;53.112;7.358;2022-07-03T15:27:36;16.20;1.00
5286;DHT22;2665;53.112;7.358;2022-07-03T15:30:04;16.20;99.90
5286;DHT22;2665;53.112;7.358;2022-07-03T15:32:30;16.20;1.00
5286;DHT22;2665;53.112;7.358;2022-07-03T15:34:55;16.30;99.90
5286;DHT22;2665;53.112;7.358;2022-07-03T15:40:32;16.60;74.60
5286;DHT22;2665;53.112;7.358;2022-07-03T15:51:51;19.40;1.00
5286;DHT22;2665;53.112;7.358;2022-07-03T15:54:31;20.90;99.90
5286;DHT22;2665;53.112;7.358;2022-07-03T15:57:03;21.80;23.20
5286;DHT22;2665;53.112;7.358;2022-07-03T15:59:30;22.30;99.90
5286;DHT22;2665;53.112;7.358;2022-07-03T16:01:59;22.60;1.00
5286;DHT22;2665;53.112;7.358;2022-07-03T16:07:12;23.30;48.30
5286;DHT22;2665;53.112;7.358;2022-07-03T16:09:40;22.70;20.10
5286;DHT22;2665;53.112;7.358;2022-07-03T16:12:09;21.90;21.30
5286;DHT22;2665;53.112;7.358;2022-07-03T16:14:41;21.50;35.30
5286;DHT22;2665;53.112;7.358;2022-07-03T16:17:07;21.00;37.00
5286;DHT22;2665;53.112;7.358;2022-07-03T16:19:34;20.60;51.70
5286;DHT22;2665;53.112;7.358;2022-07-03T16:22:00;20.50;68.90
5286;DHT22;2665;53.112;7.358;2022-07-03T16:24:28;20.40;71.30
5286;DHT22;2665;53.112;7.358;2022-07-03T16:26:55;20.80;84.80
5286;DHT22;2665;53.112;7.358;2022-07-03T16:29:21;21.10;93.80
5286;DHT22;2665;53.112;7.358;2022-07-03T16:31:49;21.60;59.40
5286;DHT22;2665;53.112;7.358;2022-07-03T16:34:28;21.00;42.50
5286;DHT22;2665;53.112;7.358;2022-07-03T16:36:56;20.40;42.60
5286;DHT22;2665;53.112;7.358;2022-07-03T16:39:37;19.90;47.30
5286;DHT22;2665;53.112;7.358;2022-07-03T16:42:04;19.70;57.30
5286;DHT22;2665;53.112;7.358;2022-07-03T16:44:36;19.60;67.00
5286;DHT22;2665;53.112;7.358;2022-07-03T16:47:03;20.70;95.90
5286;DHT22;2665;53.112;7.358;2022-07-03T16:49:37;21.80;81.30
5286;DHT22;2665;53.112;7.358;2022-07-03T16:52:08;21.90;47.60
5286;DHT22;2665;53.112;7.358;2022-07-03T16:54:35;22.60;42.00
5286;DHT22;2665;53.112;7.358;2022-07-03T16:57:06;23.20;28.90
5286;DHT22;2665;53.112;7.358;2022-07-03T16:59:33;23.70;22.40
5286;DHT22;2665;53.112;7.358;2022-07-03T17:01:59;24.20;13.90
5286;DHT22;2665;53.112;7.358;2022-07-03T17:04:29;24.40;8.40
5286;DHT22;2665;53.112;7.358;2022-07-03T17:06:56;24.50;1.00
5286;DHT22;2665;53.112;7.358;2022-07-03T17:09:22;24.80;1.00
5286;DHT22;2665;53.112;7.358;2022-07-03T17:11:49;24.70;1.00
5286;DHT22;2665;53.112;7.358;2022-07-03T17:14:15;24.30;1.00
5286;DHT22;2665;53.112;7.358;2022-07-03T17:17:05;24.00;1.00
5286;DHT22;2665;53.112;7.358;2022-07-03T17:19:31;24.00;1.00
5286;DHT22;2665;53.112;7.358;2022-07-03T17:21:57;24.30;1.00
5286;DHT22;2665;53.112;7.358;2022-07-03T17:24:29;24.30;1.00
5286;DHT22;2665;53.112;7.358;2022-07-03T17:27:01;24.20;1.00
5286;DHT22;2665;53.112;7.358;2022-07-03T17:29:47;24.10;1.00
5286;DHT22;2665;53.112;7.358;2022-07-03T17:32:16;24.10;1.00
5286;DHT22;2665;53.112;7.358;2022-07-03T17:34:43;23.70;1.00
5286;DHT22;2665;53.112;7.358;2022-07-03T17:37:13;23.10;1.00
5286;DHT22;2665;53.112;7.358;2022-07-03T17:39:39;22.20;1.00
5286;DHT22;2665;53.112;7.358;2022-07-03T17:42:08;21.90;1.00
5286;DHT22;2665;53.112;7.358;2022-07-03T17:44:39;21.50;1.00
5286;DHT22;2665;53.112;7.358;2022-07-03T17:47:06;20.80;1.00
5286;DHT22;2665;53.112;7.358;2022-07-03T17:49:34;20.40;1.00
5286;DHT22;2665;53.112;7.358;2022-07-03T17:52:00;20.00;1.00
5286;DHT22;2665;53.112;7.358;2022-07-03T17:54:26;19.70;1.00
5286;DHT22;2665;53.112;7.358;2022-07-03T17:56:53;19.70;6.60
5286;DHT22;2665;53.112;7.358;2022-07-03T17:59:40;19.90;8.30
5286;DHT22;2665;53.112;7.358;2022-07-03T18:02:06;19.90;8.50
5286;DHT22;2665;53.112;7.358;2022-07-03T18:04:32;20.20;9.70
5286;DHT22;2665;53.112;7.358;2022-07-03T18:07:00;20.60;11.70
5286;DHT22;2665;53.112;7.358;2022-07-03T18:09:27;21.00;9.40
5286;DHT22;2665;53.112;7.358;2022-07-03T18:11:58;21.40;8.50
5286;DHT22;2665;53.112;7.358;2022-07-03T18:14:33;21.50;18.40
5286;DHT22;2665;53.112;7.358;2022-07-03T18:17:00;21.20;3.70
5286;DHT22;2665;53.112;7.358;2022-07-03T18:19:30;20.90;3.00
5286;DHT22;2665;53.112;7.358;2022-07-03T18:21:57;20.30;2.80
5286;DHT22;2665;53.112;7.358;2022-07-03T18:24:26;20.30;7.00
5286;DHT22;2665;53.112;7.358;2022-07-03T18:26:54;20.60;7.50
5286;DHT22;2665;53.112;7.358;2022-07-03T18:29:23;20.80;7.40
5286;DHT22;2665;53.112;7.358;2022-07-03T18:31:49;20.80;5.90
5286;DHT22;2665;53.112;7.358;2022-07-03T18:34:20;20.40;5.10
5286;DHT22;2665;53.112;7.358;2022-07-03T18:36:47;20.10;5.60
5286;DHT22;2665;53.112;7.358;2022-07-03T18:39:14;19.90;6.50
5286;DHT22;2665;53.112;7.358;2022-07-03T18:41:42;19.70;7.30
5286;DHT22;2665;53.112;7.358;2022-07-03T18:44:08;19.50;8.60
5286;DHT22;2665;53.112;7.358;2022-07-03T18:46:36;19.30;8.60
5286;DHT22;2665;53.112;7.358;2022-07-03T18:49:04;19.10;9.90
5286;DHT22;2665;53.112;7.358;2022-07-03T18:51:48;18.90;11.70
5286;DHT22;2665;53.112;7.358;2022-07-03T18:54:45;18.80;13.00
5286;DHT22;2665;53.112;7.358;2022-07-03T18:57:29;18.60;13.30
5286;DHT22;2665;53.112;7.358;2022-07-03T19:00:10;18.50;14.20
5286;DHT22;2665;53.112;7.358;2022-07-03T19:03:00;18.30;15.40
5286;DHT22;2665;53.112;7.358;2022-07-03T19:05:37;18.10;16.00
5286;DHT22;2665;53.112;7.358;2022-07-03T19:08:09;18.10;18.00
5286;DHT22;2665;53.112;7.358;2022-07-03T19:10:53;18.00;20.40
5286;DHT22;2665;53.112;7.358;2022-07-03T19:13:26;17.90;20.60
5286;DHT22;2665;53.112;7.358;2022-07-03T19:15:56;17.80;21.70
5286;DHT22;2665;53.112;7.358;2022-07-03T19:18:22;17.80;22.60
5286;DHT22;2665;53.112;7.358;2022-07-03T19:20:48;17.70;24.40
5286;DHT22;2665;53.112;7.358;2022-07-03T19:23:13;17.70;27.70
5286;DHT22;2665;53.112;7.358;2022-07-03T19:25:39;17.70;29.00
5286;DHT22;2665;53.112;7.358;2022-07-03T19:28:04;17.70;30.10
5286;DHT22;2665;53.112;7.358;2022-07-03T19:30:33;17.70;33.10
5286;DHT22;2665;53.112;7.358;2022-07-03T19:32:59;17.70;34.90
5286;DHT22;2665;53.112;7.358;2022-07-03T19:35:24;17.70;45.00
5286;DHT22;2665;53.112;7.358;2022-07-03T19:37:51;17.50;36.60
5286;DHT22;2665;53.112;7.358;2022-07-03T19:40:16;17.50;36.70
5286;DHT22;2665;53.112;7.358;2022-07-03T19:42:42;17.40;39.80
5286;DHT22;2665;53.112;7.358;2022-07-03T19:45:11;17.30;56.20
5286;DHT22;2665;53.112;7.358;2022-07-03T19:47:37;17.20;43.30
5286;DHT22;2665;53.112;7.358;2022-07-03T19:50:04;17.10;45.30
5286;DHT22;2665;53.112;7.358;2022-07-03T19:52:31;17.00;47.30
5286;DHT22;2665;53.112;7.358;2022-07-03T19:54:57;17.00;51.30
5286;DHT22;2665;53.112;7.358;2022-07-03T19:57:22;16.90;53.50
5286;DHT22;2665;53.112;7.358;2022-07-03T19:59:48;16.80;54.70
5286;DHT22;2665;53.112;7.358;2022-07-03T20:02:13;16.70;58.80
5286;DHT22;2665;53.112;7.358;2022-07-03T20:04:39;16.70;63.60
5286;DHT22;2665;53.112;7.358;2022-07-03T20:07:05;16.60;71.20
5286;DHT22;2665;53.112;7.358;2022-07-03T20:09:31;16.50;74.40
5286;DHT22;2665;53.112;7.358;2022-07-03T20:11:57;16.40;79.50
5286;DHT22;2665;53.112;7.358;2022-07-03T20:14:23;16.40;83.70
5286;DHT22;2665;53.112;7.358;2022-07-03T20:16:51;16.30;90.00
5286;DHT22;2665;53.112;7.358;2022-07-03T20:19:16;16.20;96.50
5286;DHT22;2665;53.112;7.358;2022-07-03T20:21:42;16.20;98.50
5286;DHT22;2665;53.112;7.358;2022-07-03T20:24:09;16.10;99.90
5286;DHT22;2665;53.112;7.358;2022-07-03T20:26:54;16.10;99.90
5286;DHT22;2665;53.112;7.358;2022-07-03T20:29:21;16.00;99.90
5286;DHT22;2665;53.112;7.358;2022-07-03T20:31:46;15.90;99.90
5286;DHT22;2665;53.112;7.358;2022-07-03T20:34:13;15.80;99.90
5286;DHT22;2665;53.112;7.358;2022-07-03T20:36:39;15.80;99.90
5286;DHT22;2665;53.112;7.358;2022-07-03T20:39:07;15.80;99.90
5286;DHT22;2665;53.112;7.358;2022-07-03T20:41:34;15.70;99.90
5286;DHT22;2665;53.112;7.358;2022-07-03T20:44:00;15.70;99.90
5286;DHT22;2665;53.112;7.358;2022-07-03T20:46:26;15.60;99.90
5286;DHT22;2665;53.112;7.358;2022-07-03T20:48:52;15.60;99.90
5286;DHT22;2665;53.112;7.358;2022-07-03T20:51:17;15.50;99.90
5286;DHT22;2665;53.112;7.358;2022-07-03T20:53:46;15.50;99.90
5286;DHT22;2665;53.112;7.358;2022-07-03T20:56:13;15.50;99.90
5286;DHT22;2665;53.112;7.358;2022-07-03T20:58:38;15.50;99.90
5286;DHT22;2665;53.112;7.358;2022-07-03T21:01:04;15.40;99.90
5286;DHT22;2665;53.112;7.358;2022-07-03T21:03:30;15.40;99.90
5286;DHT22;2665;53.112;7.358;2022-07-03T21:05:56;15.40;99.90
5286;DHT22;2665;53.112;7.358;2022-07-03T21:08:40;15.30;1.00
5286;DHT22;2665;53.112;7.358;2022-07-03T21:11:06;15.30;1.00
5286;DHT22;2665;53.112;7.358;2022-07-03T21:13:50;15.30;1.00
5286;DHT22;2665;53.112;7.358;2022-07-03T21:16:15;15.30;1.00
5286;DHT22;2665;53.112;7.358;2022-07-03T21:18:41;15.30;1.00
5286;DHT22;2665;53.112;7.358;2022-07-03T21:21:06;15.30;1.00
5286;DHT22;2665;53.112;7.358;2022-07-03T21:23:32;15.30;30.70
5286;DHT22;2665;53.112;7.358;2022-07-03T21:25:58;15.30;99.90
5286;DHT22;2665;53.112;7.358;2022-07-03T21:28:23;15.20;64.10
5286;DHT22;2665;53.112;7.358;2022-07-03T21:30:50;15.20;99.90
5286;DHT22;2665;53.112;7.358;2022-07-03T21:33:16;15.20;99.90
5286;DHT22;2665;53.112;7.358;2022-07-03T21:35:42;15.20;99.90
5286;DHT22;2665;53.112;7.358;2022-07-03T21:38:08;15.20;1.00
5286;DHT22;2665;53.112;7.358;2022-07-03T21:40:33;15.20;1.00
5286;DHT22;2665;53.112;7.358;2022-07-03T21:42:59;15.20;1.00
5286;DHT22;2665;53.112;7.358;2022-07-03T21:45:25;15.20;1.00
5286;DHT22;2665;53.112;7.358;2022-07-03T21:47:50;15.10;1.00
5286;DHT22;2665;53.112;7.358;2022-07-03T21:50:16;15.10;1.00
5286;DHT22;2665;53.112;7.358;2022-07-03T21:52:42;15.00;1.00
5286;DHT22;2665;53.112;7.358;2022-07-03T21:55:08;15.10;1.00
5286;DHT22;2665;53.112;7.358;2022-07-03T21:57:33;15.00;1.00
5286;DHT22;2665;53.112;7.358;2022-07-03T21:59:59;14.90;30.00
5286;DHT22;2665;53.112;7.358;2022-07-03T22:02:25;14.90;99.90
5286;DHT22;2665;53.112;7.358;2022-07-03T22:04:50;14.80;99.90
5286;DHT22;2665;53.112;7.358;2022-07-03T22:07:16;14.80;99.90
5286;DHT22;2665;53.112;7.358;2022-07-03T22:09:41;14.70;99.90
5286;DHT22;2665;53.112;7.358;2022-07-03T22:12:13;14.70;99.90
5286;DHT22;2665;53.112;7.358;2022-07-03T22:14:58;14.70;99.90
5286;DHT22;2665;53.112;7.358;2022-07-03T22:17:25;14.60;1.00
5286;DHT22;2665;53.112;7.358;2022-07-03T22:19:51;14.50;1.00
5286;DHT22;2665;53.112;7.358;2022-07-03T22:22:16;14.50;1.00
5286;DHT22;2665;53.112;7.358;2022-07-03T22:24:42;14.50;1.00
5286;DHT22;2665;53.112;7.358;2022-07-03T22:27:08;14.40;1.00
5286;DHT22;2665;53.112;7.358;2022-07-03T22:29:34;14.30;1.00
5286;DHT22;2665;53.112;7.358;2022-07-03T22:32:00;14.30;18.70
5286;DHT22;2665;53.112;7.358;2022-07-03T22:34:25;14.30;61.90
5286;DHT22;2665;53.112;7.358;2022-07-03T22:36:52;14.20;99.90
5286;DHT22;2665;53.112;7.358;2022-07-03T22:39:18;14.20;99.90
5286;DHT22;2665;53.112;7.358;2022-07-03T22:41:55;14.20;99.90
5286;DHT22;2665;53.112;7.358;2022-07-03T22:44:22;14.20;99.90
5286;DHT22;2665;53.112;7.358;2022-07-03T22:46:48;14.10;1.00
5286;DHT22;2665;53.112;7.358;2022-07-03T22:49:14;14.10;1.00
5286;DHT22;2665;53.112;7.358;2022-07-03T22:51:40;14.10;1.00
5286;DHT22;2665;53.112;7.358;2022-07-03T22:54:06;14.00;1.00
5286;DHT22;2665;53.112;7.358;2022-07-03T22:56:32;14.00;1.00
5286;DHT22;2665;53.112;7.358;2022-07-03T22:58:57;14.00;1.00
5286;DHT22;2665;53.112;7.358;2022-07-03T23:01:25;14.00;1.00
5286;DHT22;2665;53.112;7.358;2022-07-03T23:03:50;14.00;1.00
5286;DHT22;2665;53.112;7.358;2022-07-03T23:06:16;14.00;1.00
5286;DHT22;2665;53.112;7.358;2022-07-03T23:08:42;14.00;1.00
5286;DHT22;2665;53.112;7.358;2022-07-03T23:11:07;13.90;1.00
5286;DHT22;2665;53.112;7.358;2022-07-03T23:13:33;13.90;1.00
5286;DHT22;2665;53.112;7.358;2022-07-03T23:16:00;14.00;1.00
5286;DHT22;2665;53.112;7.358;2022-07-03T23:18:26;13.90;1.00
5286;DHT22;2665;53.112;7.358;2022-07-03T23:20:52;13.90;1.00
5286;DHT22;2665;53.112;7.358;2022-07-03T23:23:18;13.90;1.00
5286;DHT22;2665;53.112;7.358;2022-07-03T23:25:43;13.80;1.00
5286;DHT22;2665;53.112;7.358;2022-07-03T23:28:09;13.80;1.00
5286;DHT22;2665;53.112;7.358;2022-07-03T23:30:35;13.70;1.00
5286;DHT22;2665;53.112;7.358;2022-07-03T23:33:00;13.70;1.00
5286;DHT22;2665;53.112;7.358;2022-07-03T23:35:26;13.60;1.00
5286;DHT22;2665;53.112;7.358;2022-07-03T23:37:52;13.50;16.50
5286;DHT22;2665;53.112;7.358;2022-07-03T23:40:17;13.50;10.50
5286;DHT22;2665;53.112;7.358;2022-07-03T23:42:43;13.40;99.90
5286;DHT22;2665;53.112;7.358;2022-07-03T23:45:09;13.40;1.00
5286;DHT22;2665;53.112;7.358;2022-07-03T23:47:35;13.40;1.00
5286;DHT22;2665;53.112;7.358;2022-07-03T23:50:03;13.40;1.00
5286;DHT22;2665;53.112;7.358;2022-07-03T23:52:47;13.40;1.00
5286;DHT22;2665;53.112;7.358;2022-07-03T23:55:13;13.40;1.00
5286;DHT22;2665;53.112;7.358;2022-07-03T23:57:39;13.40;1.00
